Flight Track Log - Related Links

Times and Time Zones

All times are in EDT time to prevent confusion due to time zone crossing. See the EJA929 flight status page for this flight to view local times or setup timezone preferences in your user account.

Time Position Orientation Groundspeed Altitude Reporting Facility
EDT Latitude Longitude Course Direction KTS MPH feet Rate Location/Type
Wed 05:19:39 PM 39.2667 -94.7333 206° Southwest 217 250 3,500  Level Kansas City TRACON
Wed 05:20:53 PM 39.1889 -94.6878 156° South 264 304 7,700 3,309 Climbing Kansas City Center
Wed 05:21:55 PM 39.1961 -94.5922 84° East 294 338 11,000 2,661 Climbing Kansas City Center
Wed 05:22:57 PM 39.2306 -94.4758 69° East 310 357 13,200 1,839 Climbing Kansas City Center
Wed 05:23:59 PM 39.2628 -94.3675 69° East 334 384 14,800 1,694 Climbing Kansas City Center
Wed 05:25:01 PM 39.3019 -94.2367 69° East 349 402 16,700 1,597 Climbing Kansas City Center
Wed 05:26:03 PM 39.3367 -94.1181 69° East 366 421 18,100 1,500 Climbing Kansas City Center
Wed 05:27:05 PM 39.3786 -93.9792 69° East 372 428 19,800 1,536 Climbing Kansas City Center
Wed 05:28:08 PM 39.3992 -93.8481 78° East 389 448 21,300 1,440 Climbing Kansas City Center
Wed 05:29:10 PM 39.4181 -93.7039 80° East 399 459 22,800 1,355 Climbing Kansas City Center
Wed 05:30:12 PM 39.4361 -93.5603 81° East 409 471 24,100 1,210 Climbing Kansas City Center
Wed 05:31:14 PM 39.4542 -93.4117 81° East 420 483 25,300 1,258 Climbing Kansas City Center
Wed 05:32:16 PM 39.4753 -93.2272 82° East 432 497 26,700 1,258 Climbing Kansas City Center
Wed 05:33:18 PM 39.4944 -93.0697 81° East 444 511 27,900 1,161 Climbing Kansas City Center
Wed 05:34:20 PM 39.5119 -92.9067 82° East 457 526 29,100 1,210 Climbing Kansas City Center
Wed 05:35:22 PM 39.5306 -92.7433 82° East 462 532 30,400 1,161 Climbing Kansas City Center
Wed 05:36:24 PM 39.5528 -92.5453 82° East 467 537 31,500 1,065 Climbing Kansas City Center
Wed 05:37:26 PM 39.5722 -92.3750 82° East 473 544 32,600 1,161 Climbing Kansas City Center
Wed 05:38:28 PM 39.5908 -92.2014 82° East 482 555 33,900 1,113 Climbing Kansas City Center
Wed 05:39:30 PM 39.6094 -92.0269 82° East 491 565 34,900 1,016 Climbing Kansas City Center
Wed 05:40:32 PM 39.6322 -91.8103 82° East 505 581 36,000 1,016 Climbing Kansas City Center
Wed 05:41:34 PM 39.6528 -91.6258 82° East 516 594 37,000 484 Climbing Kansas City Center
Wed 05:42:36 PM 39.6703 -91.4386 83° East 522 601 37,000  Level Kansas City Center
Wed 05:43:38 PM 39.6919 -91.2428 82° East 535 616 37,000  Level Kansas City Center
Wed 05:44:40 PM 39.7125 -91.0464 82° East 544 626 37,000 48 Level Kansas City Center
Wed 05:45:42 PM 39.7317 -90.8536 83° East 542 624 37,100 484 Climbing Kansas City Center
Wed 05:46:44 PM 39.7506 -90.6583 83° East 532 612 38,000 1,016 Climbing Kansas City Center
Wed 05:47:46 PM 39.7719 -90.4333 83° East 528 608 39,200 1,065 Climbing Kansas City Center
Wed 05:48:48 PM 39.7897 -90.2456 83° East 526 605 40,200 871 Climbing Kansas City Center
Wed 05:49:50 PM 39.8061 -90.0569 83° East 527 606 41,000 387 Climbing Kansas City Center
Wed 05:50:52 PM 39.8228 -89.8700 83° East 526 605 41,000  Level Kansas City Center
Wed 05:51:54 PM 39.8381 -89.6828 84° East 525 604 41,000  Level Kansas City Center
Wed 05:52:56 PM 39.8403 -89.4911 89° East 534 615 41,000  Level Kansas City Center
Wed 05:53:58 PM 39.8422 -89.2581 89° East 537 618 41,000  Level Kansas City Center
Wed 05:55:00 PM 39.8419 -89.0656 90° East 536 617 41,000  Level Kansas City Center
Wed 05:56:02 PM 39.8436 -88.8739 89° East 533 613 41,000  Level Kansas City Center
Wed 05:57:04 PM 39.8425 -88.6833 90° East 530 610 41,000  Level Kansas City Center
Wed 05:58:37 PM 39.8403 -88.3889 90° East 531 611 41,000  Level Indianapolis Center
Wed 05:59:08 PM 39.8408 -88.2636 90° East 528 608 41,000  Level Kansas City Center
Wed 06:00:10 PM 39.8403 -88.0742 90° East 530 610 41,000  Level Kansas City Center
Wed 06:00:41 PM 39.8375 -87.9686 92° East 530 610 41,000  Level Indianapolis Center
Wed 06:01:43 PM 39.8361 -87.7758 90° East 533 613 41,000  Level Indianapolis Center
Wed 06:02:45 PM 39.8350 -87.5842 90° East 532 612 41,000 242 Level Indianapolis Center
Wed 06:03:47 PM 39.8319 -87.3947 91° East 529 609 41,500 677 Climbing Indianapolis Center
Wed 06:04:49 PM 39.8292 -87.2064 91° East 524 603 42,400 840 Climbing Indianapolis Center
Wed 06:05:27 PM 39.8300 -87.0956 89° East 518 596 42,900 360 Climbing Indianapolis Center
Wed 06:06:29 PM 39.8922 -86.8922 68° East 507 583 43,000 48 Climbing Indianapolis Center
Wed 06:07:31 PM 39.9506 -86.7217 66° East 513 590 43,000  Level Indianapolis Center
Wed 06:08:33 PM 40.0094 -86.5497 66° East 516 594 43,000  Level Indianapolis Center
Wed 06:09:35 PM 40.0672 -86.3761 66° East 517 595 43,000  Level Indianapolis Center
Wed 06:10:37 PM 40.1258 -86.2011 66° East 522 601 43,000  Level Indianapolis Center
Wed 06:11:39 PM 40.1833 -86.0258 67° East 523 602 43,000  Level Indianapolis Center
Wed 06:12:41 PM 40.2403 -85.8517 67° East 522 601 43,000  Level Indianapolis Center
Wed 06:13:43 PM 40.3092 -85.6403 67° East 525 604 43,000  Level Indianapolis Center
Wed 06:14:45 PM 40.3667 -85.4653 67° East 525 604 43,000  Level Indianapolis Center
Wed 06:15:47 PM 40.4231 -85.2881 67° East 527 606 43,000  Level Indianapolis Center
Wed 06:16:49 PM 40.4797 -85.1114 67° East 526 605 43,000 97 Level Indianapolis Center
Wed 06:17:51 PM 40.5367 -84.9317 67° East 533 613 43,200 532 Climbing Indianapolis Center
Wed 06:18:53 PM 40.6025 -84.7267 67° East 525 604 44,100 823 Climbing Indianapolis Center
Wed 06:19:55 PM 40.6578 -84.5503 68° East 520 598 44,900 435 Climbing Indianapolis Center
Wed 06:20:57 PM 40.7122 -84.3758 68° East 516 594 45,000 48 Climbing Indianapolis Center
Wed 06:21:59 PM 40.7653 -84.2006 68° East 516 594 45,000  Level Indianapolis Center
Wed 06:23:01 PM 40.8203 -84.0233 68° East 518 596 45,000  Level Indianapolis Center
Wed 06:24:03 PM 40.8747 -83.8436 68° East 523 602 45,000  Level Indianapolis Center
Wed 06:25:05 PM 40.9292 -83.6647 68° East 524 603 45,000  Level Indianapolis Center
Wed 06:26:07 PM 40.9942 -83.4525 68° East 525 604 45,000  Level Indianapolis Center
Wed 06:27:09 PM 41.0475 -83.2706 69° East 526 605 45,000  Level Indianapolis Center
Wed 06:28:27 PM 41.1186 -83.0281 69° East 527 606 45,000  Level Cleveland Center
Wed 06:29:27 PM 41.1703 -82.8478 69° East 519 597 45,000  Level Cleveland Center
Wed 06:30:27 PM 41.2111 -82.6836 72° East 528 608 45,000  Level Cleveland Center
Wed 06:31:27 PM 41.2417 -82.4886 78° East 523 602 45,000  Level Cleveland Center
Wed 06:32:27 PM 41.2717 -82.2989 78° East 532 612 45,000  Level Cleveland Center
Wed 06:33:27 PM 41.2969 -82.1308 79° East 525 604 45,000  Level Cleveland Center
Wed 06:34:27 PM 41.3311 -81.9106 78° East 530 610 45,000  Level Cleveland Center
Wed 06:35:27 PM 41.3622 -81.7231 77° East 524 603 45,000  Level Cleveland Center
Wed 06:36:27 PM 41.3892 -81.5297 79° East 524 603 45,000  Level Cleveland Center
Wed 06:37:27 PM 41.4178 -81.3169 80° East 524 603 45,000  Level Cleveland Center
Wed 06:38:27 PM 41.4458 -81.1289 79° East 524 603 45,000  Level Cleveland Center
Wed 06:39:27 PM 41.4694 -80.9572 80° East 524 603 45,000  Level Cleveland Center
Wed 06:40:27 PM 41.4969 -80.7633 79° East 524 603 45,000  Level Cleveland Center
Wed 06:41:27 PM 41.5244 -80.5692 79° East 524 603 45,000  Level Cleveland Center
Wed 06:42:27 PM 41.5492 -80.3806 80° East 524 603 45,000  Level Cleveland Center
Wed 06:43:27 PM 41.5778 -80.1889 79° East 524 603 45,000  Level Cleveland Center
Wed 06:44:27 PM 41.6019 -79.9917 81° East 524 603 45,000  Level Cleveland Center
Wed 06:45:27 PM 41.6133 -79.7972 85° East 524 603 45,000  Level Cleveland Center
Wed 06:46:27 PM 41.6203 -79.6000 87° East 524 603 45,000  Level Cleveland Center
Wed 06:47:27 PM 41.6267 -79.4053 87° East 524 603 45,000  Level Cleveland Center
Wed 06:48:27 PM 41.6328 -79.2053 88° East 524 603 45,000  Level Cleveland Center
Wed 06:49:27 PM 41.6386 -79.0078 88° East 530 610 45,000  Level Cleveland Center
Wed 06:50:27 PM 41.6442 -78.8131 88° East 530 610 45,000  Level Cleveland Center
Wed 06:51:27 PM 41.6492 -78.6158 88° East 535 616 45,000 -200 Level Cleveland Center
Wed 06:52:27 PM 41.6539 -78.4156 88° East 535 616 44,600 -1,839 Descending Cleveland Center
Wed 06:54:33 PM 41.6642 -77.9933 88° East 539 620 39,300 -2,677 Descending New York Center
Wed 06:55:33 PM 41.6681 -77.7911 88° East 539 620 36,300 -2,150 Descending New York Center
Wed 06:56:33 PM 41.6714 -77.5914 89° East 539 620 35,000 -650 Descending New York Center
Wed 06:57:33 PM 41.6747 -77.3861 89° East 539 620 35,000 -800 Level New York Center
Wed 06:58:33 PM 41.6750 -77.1889 90° East 539 620 33,400 -1,900 Descending New York Center
Wed 06:59:33 PM 41.6336 -76.9853 105° East 544 626 31,200 -2,100 Descending New York Center
Wed 07:00:33 PM 41.5811 -76.7917 110° East 549 632 29,200 -2,100 Descending New York Center
Wed 07:01:33 PM 41.5247 -76.5869 110° East 544 626 27,000 -2,100 Descending New York Center
Wed 07:02:33 PM 41.4750 -76.4083 110° East 527 606 25,000 -1,500 Descending New York Center
Wed 07:03:33 PM 41.4294 -76.2247 108° East 521 600 24,000 -843 Descending New York Center
Wed 07:04:34 PM 41.3769 -76.0517 112° Southeast 521 600 23,300 -1,636 Descending New York Center
Wed 07:05:34 PM 41.3353 -75.9075 111° Southeast 499 574 20,700 -2,269 Descending New York Center
Wed 07:06:33 PM 41.2864 -75.7381 111° Southeast 483 556 18,800 -2,118 Descending New York Center
Wed 07:07:33 PM 41.2347 -75.5769 113° Southeast 483 556 16,500 -2,150 Descending New York Center
Wed 07:08:33 PM 41.1844 -75.4244 114° Southeast 467 537 14,500 -2,400 Descending New York Center
Wed 07:09:33 PM 41.1361 -75.2781 114° Southeast 411 473 11,700 -2,400 Descending New York Center
Wed 07:10:33 PM 41.0986 -75.1681 114° Southeast 349 402 9,700 -1,900 Descending New York Center
Wed 07:11:33 PM 41.0647 -75.0669 114° Southeast 314 361 7,900 -1,835 Descending New York Center
Wed 07:12:34 PM 41.0267 -74.9681 117° Southeast 296 341 6,000 -942 Descending New York Center
Wed 07:13:34 PM 41.0053 -74.8597 105° East 296 341 6,000 -403 Level New York Center
Wed 07:14:33 PM 41.0106 -74.7664 86° East 287 330 5,200 -1,261 Descending New York Center
Wed 07:15:33 PM 41.0122 -74.6567 89° East 277 319 3,500 -1,100 Descending New York Center
Wed 07:16:33 PM 41.0153 -74.5661 87° East 272 313 3,000 -250 Descending New York Center
Wed 07:17:33 PM 41.0167 -74.4506 89° East 272 313 3,000  Level New York Center
Wed 07:18:33 PM 41.0217 -74.3600 86° East 272 313 3,000  Level New York Center
Wed 07:19:46 PM 41.0167 -74.2167 93° East 277 319 3,000 -142 Level New York TRACON
Wed 07:20:40 PM 41.0333 -74.1333 75° East 243 280 2,700 -526 Descending New York TRACON
Wed 07:21:40 PM 41.0167 -74.0667 108° East 208 239 2,000 -350 Descending New York TRACON
Wed 07:22:40 PM 40.9667 -74.0500 166° South 179 206 2,000 -350 Level New York TRACON
Wed 07:23:40 PM 40.9167 -74.0500 180° South 135 155 1,300 -650 Descending New York TRACON
Wed 07:24:40 PM 40.8833 -74.0500 180° South 125 144 700 -600 Descending New York TRACON
Wed 07:27:00 PM 40.8500 -74.0500 176° South  Level FlightAware Approximate

Login

Don't have an account? Register now (free) for customized features, flight alerts, and more!